Time;durP1;ratioP1;P1;durP2;ratioP2;P2;SDS_P1;SDS_P2;PMS_P1;PMS_P2;Temp;Humidity;BMP_temperature;BMP_pressure;BME280_temperature;BME280_humidity;BME280_pressure;Samples;Min_cycle;Max_cycle;Signal;HPM_P1;HPM_P2
2023/12/23 00:00:07;;;;;;;2.63;0.50;;;;;;;8.22;100.00;98870.97;331928;29;18007;-77
2023/12/23 00:00:19;;;;;;;2.40;0.73;;;;;;;8.18;100.00;98849.50;335490;29;5020;-77
2023/12/23 00:00:31;;;;;;;2.08;0.73;;;;;;;8.17;100.00;98853.84;328046;29;5253;-77
2023/12/23 00:00:44;;;;;;;1.70;0.50;;;;;;;8.17;100.00;98868.53;334976;28;6904;-77
2023/12/23 00:00:56;;;;;;;2.80;0.60;;;;;;;8.12;100.00;98870.44;333704;28;12946;-76
2023/12/23 00:01:08;;;;;;;2.63;0.77;;;;;;;8.16;100.00;98866.84;336315;28;5346;-77
2023/12/23 00:01:20;;;;;;;2.88;0.80;;;;;;;8.18;100.00;98854.69;335404;28;7099;-77
2023/12/23 00:01:34;;;;;;;2.55;0.77;;;;;;;8.25;100.00;98868.25;334073;28;18136;-76
2023/12/23 00:01:46;;;;;;;2.22;0.85;;;;;;;8.29;100.00;98875.00;336246;28;16777;-76
2023/12/23 00:01:58;;;;;;;2.53;0.93;;;;;;;8.28;100.00;98850.84;334306;28;18295;-76
2023/12/23 00:02:11;;;;;;;2.40;0.88;;;;;;;8.27;100.00;98858.66;331524;28;4583;-76
2023/12/23 00:02:23;;;;;;;1.92;0.68;;;;;;;8.24;100.00;98864.81;334395;28;17991;-77
2023/12/23 00:02:35;;;;;;;1.52;0.77;;;;;;;8.23;100.00;98852.78;336957;28;5629;-77
2023/12/23 00:02:47;;;;;;;2.83;1.00;;;;;;;8.27;100.00;98863.84;333623;28;13567;-77
2023/12/23 00:03:00;;;;;;;4.88;1.20;;;;;;;8.24;100.00;98854.47;337468;28;4600;-76
2023/12/23 00:03:12;;;;;;;3.40;0.75;;;;;;;8.25;100.00;98865.66;334111;28;17996;-76
2023/12/23 00:03:24;;;;;;;3.00;0.70;;;;;;;8.23;100.00;98864.88;331336;28;4674;-77
2023/12/23 00:03:36;;;;;;;1.33;0.50;;;;;;;8.25;100.00;98865.66;336180;28;4696;-76
2023/12/23 00:03:48;;;;;;;1.05;0.52;;;;;;;8.24;100.00;98859.63;332660;28;17246;-77
2023/12/23 00:04:01;;;;;;;1.70;0.50;;;;;;;8.27;100.00;98844.00;334905;28;4546;-76
2023/12/23 00:04:13;;;;;;;1.50;0.50;;;;;;;8.28;100.00;98850.84;331956;28;17659;-76
2023/12/23 00:04:25;;;;;;;1.27;0.40;;;;;;;8.31;100.00;98861.13;335304;28;4659;-76
2023/12/23 00:04:37;;;;;;;1.15;0.55;;;;;;;8.34;100.00;98866.16;333667;28;13633;-77
2023/12/23 00:04:49;;;;;;;1.40;0.60;;;;;;;8.31;100.00;98862.84;335550;28;4858;-77
2023/12/23 00:05:01;;;;;;;1.67;0.75;;;;;;;8.32;100.00;98857.63;335275;29;4560;-76
2023/12/23 00:05:13;;;;;;;1.20;0.70;;;;;;;8.32;100.00;98867.97;331005;29;18095;-76
2023/12/23 00:05:25;;;;;;;0.93;0.60;;;;;;;8.32;100.00;98878.34;333213;29;4593;-76
2023/12/23 00:05:37;;;;;;;1.10;0.60;;;;;;;8.30;100.00;98871.53;332008;29;17740;-77
2023/12/23 00:05:50;;;;;;;1.33;0.63;;;;;;;8.28;100.00;98866.41;333445;29;5288;-76
2023/12/23 00:06:02;;;;;;;0.85;0.57;;;;;;;8.31;100.00;98866.31;333733;29;13192;-76
2023/12/23 00:06:14;;;;;;;0.88;0.50;;;;;;;8.26;100.00;98852.66;330831;29;17973;-77
2023/12/23 00:06:27;;;;;;;0.70;0.40;;;;;;;8.25;100.00;98878.59;329359;29;4880;-76
2023/12/23 00:06:39;;;;;;;0.93;0.45;;;;;;;8.25;100.00;98856.16;332353;29;4848;-76
2023/12/23 00:06:51;;;;;;;1.88;0.80;;;;;;;8.23;100.00;98870.91;334787;29;5389;-76
2023/12/23 00:07:03;;;;;;;2.50;0.82;;;;;;;8.23;100.00;98863.16;333239;28;16248;-76
2023/12/23 00:07:15;;;;;;;2.65;0.50;;;;;;;8.22;100.00;98856.25;335736;28;5293;-76
2023/12/23 00:07:27;;;;;;;3.45;0.70;;;;;;;8.20;100.00;98883.94;335515;28;5258;-76
2023/12/23 00:07:39;;;;;;;3.55;0.77;;;;;;;8.24;100.00;98859.63;329446;28;17876;-76
2023/12/23 00:07:51;;;;;;;1.70;0.55;;;;;;;8.17;100.00;98855.59;336190;28;5540;-76
2023/12/23 00:08:04;;;;;;;0.73;0.47;;;;;;;8.19;100.00;98882.28;330016;28;18062;-76
2023/12/23 00:08:16;;;;;;;1.23;0.55;;;;;;;8.20;100.00;98858.06;337136;28;6922;-76
2023/12/23 00:08:28;;;;;;;1.50;0.70;;;;;;;8.19;100.00;98866.75;334674;28;16420;-77
2023/12/23 00:08:41;;;;;;;3.08;0.68;;;;;;;8.18;100.00;98871.06;337133;28;5404;-76
2023/12/23 00:08:53;;;;;;;2.65;0.47;;;;;;;8.23;100.00;98877.81;334602;28;19256;-76
2023/12/23 00:09:05;;;;;;;2.85;0.50;;;;;;;8.27;100.00;98866.44;336887;28;5652;-76
2023/12/23 00:09:17;;;;;;;1.40;0.50;;;;;;;8.28;100.00;98876.75;336983;28;5257;-76
2023/12/23 00:09:29;;;;;;;1.40;0.50;;;;;;;8.29;100.00;98847.38;334537;28;18078;-77
2023/12/23 00:09:41;;;;;;;1.63;0.40;;;;;;;8.27;100.00;98871.63;336442;28;4652;-76
2023/12/23 00:09:54;;;;;;;2.30;0.45;;;;;;;8.26;100.00;98864.78;334126;28;18385;-76
2023/12/23 00:10:07;;;;;;;2.60;0.50;;;;;;;8.26;100.00;98857.00;336933;28;4487;-76
2023/12/23 00:10:19;;;;;;;0.75;0.40;;;;;;;8.23;100.00;98870.91;331637;28;17946;-77
2023/12/23 00:10:31;;;;;;;1.92;0.38;;;;;;;8.18;100.00;98872.81;334871;28;18110;-77
2023/12/23 00:10:44;;;;;;;3.33;0.40;;;;;;;8.28;100.00;98865.56;335837;28;10148;-76
2023/12/23 00:10:56;;;;;;;3.58;0.40;;;;;;;8.26;100.00;98867.34;333377;28;17143;-77
2023/12/23 00:11:08;;;;;;;0.73;0.30;;;;;;;8.25;100.00;98858.75;335934;28;4564;-77
2023/12/23 00:11:20;;;;;;;1.00;0.40;;;;;;;8.20;100.00;98861.47;335786;28;18074;-77
2023/12/23 00:11:32;;;;;;;1.10;0.47;;;;;;;8.20;100.00;98873.59;338696;28;4522;-76
2023/12/23 00:11:44;;;;;;;1.10;0.50;;;;;;;8.23;100.00;98855.38;328786;28;13793;-76
2023/12/23 00:11:56;;;;;;;0.60;0.45;;;;;;;8.26;100.00;98860.44;336067;29;5497;-76
2023/12/23 00:12:08;;;;;;;2.15;0.52;;;;;;;8.24;100.00;98854.47;335397;28;5503;-76
2023/12/23 00:12:21;;;;;;;3.35;0.70;;;;;;;8.25;100.00;98870.81;329235;28;18213;-76
2023/12/23 00:12:33;;;;;;;2.53;0.57;;;;;;;8.23;100.00;98894.22;336095;28;4727;-77
2023/12/23 00:12:45;;;;;;;1.77;0.50;;;;;;;8.22;100.00;98871.78;333480;29;11942;-76
2023/12/23 00:12:57;;;;;;;1.50;0.40;;;;;;;8.27;100.00;98890.63;335849;29;4610;-76
2023/12/23 00:13:09;;;;;;;1.25;0.45;;;;;;;8.26;100.00;98868.19;335361;29;4638;-76
2023/12/23 00:13:21;;;;;;;1.15;0.47;;;;;;;8.26;100.00;98881.13;327462;29;20632;-76
2023/12/23 00:13:33;;;;;;;2.25;0.70;;;;;;;8.24;100.00;98870.00;335067;28;4639;-76
2023/12/23 00:13:45;;;;;;;2.63;0.77;;;;;;;8.22;100.00;98866.63;332901;28;13448;-76
2023/12/23 00:13:57;;;;;;;1.63;0.53;;;;;;;8.18;100.00;98865.03;336121;29;5338;-76
2023/12/23 00:14:09;;;;;;;2.28;0.40;;;;;;;8.18;100.00;98881.41;335581;28;5127;-76
2023/12/23 00:14:21;;;;;;;2.50;0.40;;;;;;;8.18;100.00;98867.63;333237;28;18124;-76
2023/12/23 00:14:33;;;;;;;2.20;0.50;;;;;;;8.17;100.00;98884.06;334599;29;4537;-76
2023/12/23 00:14:45;;;;;;;2.00;0.60;;;;;;;8.21;100.00;98885.66;334404;29;4568;-76
2023/12/23 00:14:57;;;;;;;1.98;0.50;;;;;;;8.24;100.00;98867.41;329108;28;18199;-76
2023/12/23 00:15:09;;;;;;;1.45;0.40;;;;;;;8.27;100.00;98888.03;335838;29;4605;-76
2023/12/23 00:15:21;;;;;;;1.38;0.30;;;;;;;8.28;100.00;98892.28;333828;29;16954;-76
2023/12/23 00:15:33;;;;;;;2.08;0.32;;;;;;;8.27;100.00;98869.91;336056;28;4811;-76
2023/12/23 00:15:45;;;;;;;1.42;0.40;;;;;;;8.30;100.00;98894.81;335792;29;5023;-76
2023/12/23 00:15:57;;;;;;;1.30;0.40;;;;;;;8.30;100.00;98874.94;333037;28;18025;-76
2023/12/23 00:16:09;;;;;;;1.30;0.40;;;;;;;8.25;100.00;98871.69;335705;29;5413;-76
2023/12/23 00:16:24;;;;;;;1.15;0.32;;;;;;;8.25;100.00;98874.28;333351;28;6213;-76
2023/12/23 00:16:36;;;;;;;0.50;0.30;;;;;;;8.26;100.00;98860.44;328976;28;4640;-76
2023/12/23 00:16:48;;;;;;;0.57;0.30;;;;;;;8.36;100.00;98874.72;335615;28;4685;-76
2023/12/23 00:17:00;;;;;;;0.70;0.30;;;;;;;8.36;100.00;98890.25;336047;28;4604;-76
2023/12/23 00:17:12;;;;;;;1.00;0.40;;;;;;;8.33;100.00;98885.22;332812;28;18026;-76
2023/12/23 00:17:24;;;;;;;2.78;0.57;;;;;;;8.31;100.00;98870.59;335749;28;4625;-76
2023/12/23 00:17:36;;;;;;;5.00;0.85;;;;;;;8.29;100.00;98888.81;335163;28;18631;-76
2023/12/23 00:17:50;;;;;;;4.03;0.68;;;;;;;8.31;100.00;98891.31;328050;28;18636;-76
2023/12/23 00:18:03;;;;;;;2.42;0.38;;;;;;;8.35;100.00;98903.25;334009;28;18064;-76
2023/12/23 00:18:16;;;;;;;1.52;0.50;;;;;;;8.36;100.00;98873.91;335524;29;4774;-76
2023/12/23 00:18:28;;;;;;;1.00;0.57;;;;;;;8.35;100.00;98892.91;333401;28;17842;-76
2023/12/23 00:18:40;;;;;;;2.10;0.40;;;;;;;8.34;100.00;98912.78;334691;29;4583;-76
2023/12/23 00:18:52;;;;;;;2.40;0.40;;;;;;;8.35;100.00;98891.19;333315;28;18254;-76
2023/12/23 00:19:05;;;;;;;2.13;0.40;;;;;;;8.35;100.00;98898.94;335961;28;4726;-76
2023/12/23 00:19:17;;;;;;;1.65;0.40;;;;;;;8.38;100.00;98878.09;333223;28;19532;-76
2023/12/23 00:19:30;;;;;;;1.52;0.30;;;;;;;8.40;100.00;98886.66;336537;28;4527;-76
2023/12/23 00:19:42;;;;;;;2.42;0.45;;;;;;;8.46;100.00;98889.97;333611;28;4798;-76
2023/12/23 00:19:55;;;;;;;1.50;0.40;;;;;;;8.45;100.00;98870.16;336433;28;4692;-76
2023/12/23 00:20:08;;;;;;;2.40;0.40;;;;;;;8.49;100.00;98863.94;334059;28;18108;-76
2023/12/23 00:20:20;;;;;;;1.75;0.40;;;;;;;8.45;100.00;98864.97;336210;28;4742;-76
2023/12/23 00:20:32;;;;;;;1.35;0.50;;;;;;;8.43;100.00;98914.25;333794;28;13264;-76
2023/12/23 00:20:44;;;;;;;0.93;0.40;;;;;;;8.46;100.00;98880.47;336453;28;4695;-76
2023/12/23 00:20:57;;;;;;;0.88;0.38;;;;;;;8.45;100.00;98893.47;333705;28;4853;-76
2023/12/23 00:21:10;;;;;;;1.73;0.40;;;;;;;8.49;100.00;98895.03;336440;28;4740;-76
2023/12/23 00:21:22;;;;;;;1.75;0.40;;;;;;;8.42;100.00;98888.41;333151;28;14225;-76
2023/12/23 00:21:34;;;;;;;2.28;0.50;;;;;;;8.47;100.00;98881.28;336499;28;4544;-76
2023/12/23 00:21:46;;;;;;;2.10;0.50;;;;;;;8.53;100.00;98875.88;336225;28;5254;-76
2023/12/23 00:21:58;;;;;;;0.52;0.32;;;;;;;8.53;100.00;98865.53;333407;28;17230;-76
2023/12/23 00:22:10;;;;;;;0.60;0.40;;;;;;;8.51;100.00;98919.13;335791;28;4506;-76
2023/12/23 00:22:22;;;;;;;1.20;0.50;;;;;;;8.45;100.00;98898.63;336060;28;4551;-76
2023/12/23 00:22:34;;;;;;;2.10;0.63;;;;;;;8.48;100.00;98870.06;333548;28;18899;-76
2023/12/23 00:22:46;;;;;;;1.60;0.60;;;;;;;8.48;100.00;98903.72;335408;28;4749;-76
2023/12/23 00:22:59;;;;;;;0.95;0.40;;;;;;;8.45;100.00;98896.03;332155;29;18920;-76
2023/12/23 00:23:12;;;;;;;0.63;0.30;;;;;;;8.37;100.00;98897.16;335049;29;4751;-75
2023/12/23 00:23:25;;;;;;;0.60;0.30;;;;;;;8.41;100.00;98900.53;327112;29;17889;-76
2023/12/23 00:23:37;;;;;;;1.13;0.60;;;;;;;8.36;100.00;98905.81;333612;29;5488;-76
2023/12/23 00:23:49;;;;;;;1.08;0.63;;;;;;;8.44;100.00;98900.38;327483;29;5527;-76
2023/12/23 00:24:01;;;;;;;1.80;0.57;;;;;;;8.44;100.00;98917.69;333604;29;5186;-76
2023/12/23 00:24:13;;;;;;;2.00;0.47;;;;;;;8.46;100.00;98864.09;330900;29;12524;-76
2023/12/23 00:24:26;;;;;;;1.30;0.45;;;;;;;8.54;100.00;98908.69;333580;29;5518;-76
2023/12/23 00:24:38;;;;;;;0.80;0.50;;;;;;;8.57;100.00;98908.53;330404;29;8674;-76
2023/12/23 00:24:50;;;;;;;1.60;0.50;;;;;;;8.59;100.00;98862.72;333497;29;5494;-76
2023/12/23 00:25:02;;;;;;;2.00;0.45;;;;;;;8.54;100.00;98883.63;328538;29;4721;-76
2023/12/23 00:25:14;;;;;;;2.40;0.60;;;;;;;8.50;100.00;98901.91;331309;29;17992;-76
2023/12/23 00:25:26;;;;;;;1.63;0.43;;;;;;;8.51;100.00;98888.06;334423;29;5478;-76
2023/12/23 00:25:39;;;;;;;1.48;0.40;;;;;;;8.48;100.00;98903.72;334526;29;4761;-76
2023/12/23 00:25:51;;;;;;;2.38;0.50;;;;;;;8.51;100.00;98895.81;333664;28;18240;-76
2023/12/23 00:26:03;;;;;;;2.90;0.60;;;;;;;8.48;100.00;98908.91;335338;29;4629;-76
2023/12/23 00:26:15;;;;;;;1.88;0.40;;;;;;;8.52;100.00;98895.78;332713;29;17950;-76
2023/12/23 00:26:27;;;;;;;0.88;0.38;;;;;;;8.50;100.00;98907.09;334072;29;4567;-76
2023/12/23 00:26:39;;;;;;;0.65;0.30;;;;;;;8.57;100.00;98919.78;331589;28;18502;-76
2023/12/23 00:26:53;;;;;;;0.55;0.30;;;;;;;8.58;100.00;98905.91;334658;29;4711;-76
2023/12/23 00:27:05;;;;;;;1.17;0.43;;;;;;;8.65;100.00;98897.91;333141;29;17963;-76
2023/12/23 00:27:17;;;;;;;1.95;0.55;;;;;;;8.62;100.00;98917.00;335347;29;5304;-76
2023/12/23 00:27:29;;;;;;;2.67;0.47;;;;;;;8.62;100.00;98901.47;333058;29;16534;-76
2023/12/23 00:27:41;;;;;;;3.95;0.75;;;;;;;8.60;100.00;98898.94;335779;28;5330;-76
2023/12/23 00:27:53;;;;;;;4.82;0.73;;;;;;;8.61;100.00;98889.41;335704;28;4899;-76
2023/12/23 00:28:06;;;;;;;4.60;0.85;;;;;;;8.65;100.00;98922.06;331303;28;16711;-76
2023/12/23 00:28:18;;;;;;;2.70;0.63;;;;;;;8.65;100.00;98898.75;335165;28;5472;-76
2023/12/23 00:28:30;;;;;;;2.22;0.52;;;;;;;8.65;100.00;98906.53;333446;28;13853;-76
2023/12/23 00:28:42;;;;;;;1.13;0.40;;;;;;;8.60;100.00;98900.69;334048;28;4543;-76
2023/12/23 00:28:54;;;;;;;1.38;0.38;;;;;;;8.61;100.00;98915.31;334680;28;4901;-76
2023/12/23 00:29:06;;;;;;;3.40;0.40;;;;;;;8.59;100.00;98901.56;332619;28;17660;-76
2023/12/23 00:29:18;;;;;;;3.30;0.30;;;;;;;8.58;100.00;98905.06;330696;28;5409;-76
2023/12/23 00:29:31;;;;;;;2.13;0.28;;;;;;;8.55;100.00;98910.34;331977;28;18068;-76
2023/12/23 00:29:43;;;;;;;0.45;0.25;;;;;;;8.55;100.00;98894.81;335916;28;4634;-76
2023/12/23 00:29:55;;;;;;;1.48;0.40;;;;;;;8.56;100.00;98906.88;334188;28;4706;-76
2023/12/23 00:30:07;;;;;;;1.70;0.47;;;;;;;8.55;100.00;98902.59;335897;28;5094;-76
2023/12/23 00:30:19;;;;;;;1.08;0.43;;;;;;;8.50;100.00;98917.47;337013;28;4689;-76
2023/12/23 00:30:32;;;;;;;0.60;0.40;;;;;;;8.57;100.00;98914.59;332738;28;18394;-76
2023/12/23 00:30:44;;;;;;;0.95;0.43;;;;;;;8.65;100.00;98909.13;330178;28;5293;-76
2023/12/23 00:30:56;;;;;;;1.10;0.40;;;;;;;8.72;100.00;98915.78;331590;29;19269;-76
2023/12/23 00:31:10;;;;;;;1.15;0.45;;;;;;;8.73;100.00;98898.47;335873;29;4851;-76
2023/12/23 00:31:22;;;;;;;0.68;0.40;;;;;;;8.69;100.00;98891.72;329368;28;19026;-76
2023/12/23 00:31:34;;;;;;;1.33;0.40;;;;;;;8.64;100.00;98910.03;335851;29;4763;-76
2023/12/23 00:31:46;;;;;;;1.27;0.45;;;;;;;8.66;100.00;98917.75;332892;28;18336;-76
2023/12/23 00:31:58;;;;;;;1.83;0.50;;;;;;;8.66;100.00;98910.81;335682;29;4650;-76
2023/12/23 00:32:10;;;;;;;2.95;0.47;;;;;;;8.69;100.00;98918.50;334846;29;5348;-76
2023/12/23 00:32:22;;;;;;;3.85;0.45;;;;;;;8.73;100.00;98916.59;332315;29;17055;-76
2023/12/23 00:32:34;;;;;;;2.85;0.47;;;;;;;8.72;100.00;98910.59;334970;29;4782;-76
2023/12/23 00:32:46;;;;;;;1.98;0.50;;;;;;;8.62;100.00;98922.19;331547;29;16728;-76
2023/12/23 00:32:59;;;;;;;1.80;0.40;;;;;;;8.68;100.00;98898.66;333785;29;5373;-76
2023/12/23 00:33:11;;;;;;;2.50;0.40;;;;;;;8.73;100.00;98901.06;329864;29;5680;-76
2023/12/23 00:33:23;;;;;;;2.75;0.60;;;;;;;8.73;100.00;98899.34;333310;29;4834;-76
2023/12/23 00:33:35;;;;;;;1.40;0.60;;;;;;;8.71;100.00;98900.28;329128;29;4571;-76
2023/12/23 00:33:49;;;;;;;0.95;0.45;;;;;;;8.64;100.00;98894.50;331945;29;19224;-76
2023/12/23 00:34:02;;;;;;;0.50;0.20;;;;;;;8.64;100.00;98915.22;331435;29;18178;-76
2023/12/23 00:34:14;;;;;;;0.55;0.20;;;;;;;8.62;100.00;98870.38;335062;28;4834;-76
2023/12/23 00:34:26;;;;;;;0.93;0.60;;;;;;;8.55;100.00;98906.03;333009;28;13712;-76
2023/12/23 00:34:38;;;;;;;1.48;0.70;;;;;;;8.58;100.00;98868.81;335347;28;4557;-76
2023/12/23 00:34:50;;;;;;;1.75;0.70;;;;;;;8.58;100.00;98925.81;334757;28;4606;-76
2023/12/23 00:35:02;;;;;;;1.33;0.40;;;;;;;8.63;100.00;98903.13;331313;28;17459;-76
2023/12/23 00:35:14;;;;;;;0.95;0.40;;;;;;;8.70;100.00;98891.66;335107;28;4593;-76
2023/12/23 00:35:26;;;;;;;0.90;0.40;;;;;;;8.69;100.00;98896.91;332781;28;19386;-76
2023/12/23 00:35:38;;;;;;;0.90;0.40;;;;;;;8.63;100.00;98897.97;334813;28;4703;-76
2023/12/23 00:35:50;;;;;;;0.80;0.28;;;;;;;8.57;100.00;98908.53;334132;28;5684;-76
2023/12/23 00:36:02;;;;;;;0.98;0.20;;;;;;;8.58;100.00;98894.72;332421;29;16373;-77
2023/12/23 00:36:14;;;;;;;2.67;0.40;;;;;;;8.68;100.00;98901.25;335171;28;4774;-76
2023/12/23 00:36:26;;;;;;;2.78;0.47;;;;;;;8.67;100.00;98889.19;335746;28;4717;-76
2023/12/23 00:36:38;;;;;;;1.65;0.55;;;;;;;8.73;100.00;98896.75;333211;28;18334;-76
2023/12/23 00:36:51;;;;;;;1.95;0.60;;;;;;;8.77;100.00;98895.72;335109;29;5181;-76
2023/12/23 00:37:03;;;;;;;2.22;0.60;;;;;;;8.74;100.00;98900.19;332463;28;5637;-76
2023/12/23 00:37:15;;;;;;;2.28;0.47;;;;;;;8.72;100.00;98892.44;334550;29;5070;-76
2023/12/23 00:37:27;;;;;;;2.35;0.50;;;;;;;8.75;100.00;98894.94;332552;28;12950;-76
2023/12/23 00:37:39;;;;;;;1.38;0.50;;;;;;;8.68;100.00;98905.59;334628;29;5613;-76
2023/12/23 00:37:52;;;;;;;0.52;0.35;;;;;;;8.64;100.00;98920.41;330524;28;5414;-76
2023/12/23 00:38:04;;;;;;;1.27;0.50;;;;;;;8.62;100.00;98905.81;332017;29;18338;-76
2023/12/23 00:38:16;;;;;;;2.00;0.50;;;;;;;8.63;100.00;98897.97;334183;29;5331;-76
2023/12/23 00:38:28;;;;;;;1.85;0.50;;;;;;;8.65;100.00;98898.75;332298;29;18001;-76
2023/12/23 00:38:40;;;;;;;1.10;0.45;;;;;;;8.55;100.00;98908.63;334698;29;4922;-76
2023/12/23 00:38:52;;;;;;;0.75;0.50;;;;;;;8.53;100.00;98906.97;332411;29;13543;-76
2023/12/23 00:39:04;;;;;;;1.92;0.40;;;;;;;8.54;100.00;98883.63;335455;29;5579;-76
2023/12/23 00:39:16;;;;;;;1.70;0.30;;;;;;;8.55;100.00;98902.59;336061;28;5510;-76
2023/12/23 00:39:28;;;;;;;1.15;0.20;;;;;;;8.50;100.00;98897.56;328358;28;16677;-76
2023/12/23 00:39:40;;;;;;;0.77;0.38;;;;;;;8.39;100.00;98926.44;336142;28;5517;-76
2023/12/23 00:39:52;;;;;;;1.67;0.40;;;;;;;8.40;100.00;98897.03;336784;28;4693;-76
2023/12/23 00:40:06;;;;;;;1.60;0.47;;;;;;;8.40;100.00;98907.38;334358;28;17799;-76
2023/12/23 00:40:18;;;;;;;0.80;0.60;;;;;;;8.39;100.00;98905.72;334751;28;9157;-76
2023/12/23 00:40:30;;;;;;;0.60;0.50;;;;;;;8.31;100.00;98906.84;337224;28;4734;-76
2023/12/23 00:40:42;;;;;;;0.82;0.40;;;;;;;8.29;100.00;98901.75;336896;28;5134;-76
2023/12/23 00:40:54;;;;;;;1.63;0.50;;;;;;;8.30;100.00;98903.44;332945;29;18743;-76
2023/12/23 00:41:06;;;;;;;2.15;0.47;;;;;;;8.28;100.00;98900.06;334475;29;4673;-76
2023/12/23 00:41:18;;;;;;;2.03;0.40;;;;;;;8.23;100.00;98909.75;333403;28;16288;-76
2023/12/23 00:41:30;;;;;;;2.15;0.55;;;;;;;8.15;100.00;98906.59;336365;28;4597;-76
2023/12/23 00:41:42;;;;;;;2.75;0.55;;;;;;;8.16;100.00;98906.50;335424;28;4547;-76
2023/12/23 00:41:54;;;;;;;3.30;0.50;;;;;;;8.14;100.00;98904.88;333137;28;18043;-76
2023/12/23 00:42:06;;;;;;;3.30;0.43;;;;;;;8.10;100.00;98904.13;335060;28;4672;-76
2023/12/23 00:42:19;;;;;;;3.90;0.68;;;;;;;8.09;100.00;98906.75;334966;28;5653;-76
2023/12/23 00:42:31;;;;;;;3.75;0.63;;;;;;;8.08;100.00;98905.09;332148;28;18023;-75
2023/12/23 00:42:44;;;;;;;3.08;0.57;;;;;;;8.15;100.00;98909.16;334414;28;4807;-76
2023/12/23 00:42:56;;;;;;;1.08;0.32;;;;;;;8.11;100.00;98915.31;332190;29;19025;-76
2023/12/23 00:43:08;;;;;;;1.38;0.35;;;;;;;8.16;100.00;98916.84;334783;29;5441;-76
2023/12/23 00:43:20;;;;;;;1.98;0.68;;;;;;;8.22;100.00;98892.50;331849;29;18572;-75
2023/12/23 00:43:32;;;;;;;1.60;0.80;;;;;;;8.31;100.00;98897.38;334757;29;4717;-76
2023/12/23 00:43:44;;;;;;;2.00;0.77;;;;;;;8.27;100.00;98898.38;328802;28;16029;-76
2023/12/23 00:43:56;;;;;;;2.03;0.32;;;;;;;8.24;100.00;98895.03;335921;28;5120;-76
2023/12/23 00:44:08;;;;;;;2.10;0.50;;;;;;;8.19;100.00;98902.97;334849;28;5337;-76
2023/12/23 00:44:20;;;;;;;1.02;0.60;;;;;;;8.16;100.00;98913.44;328140;29;19742;-76
2023/12/23 00:44:32;;;;;;;1.63;0.63;;;;;;;8.15;100.00;98922.09;335711;29;5133;-76
2023/12/23 00:44:45;;;;;;;3.00;0.57;;;;;;;8.14;100.00;98915.22;331883;29;5465;-76
2023/12/23 00:44:57;;;;;;;2.40;0.50;;;;;;;8.13;100.00;98919.56;334711;29;5482;-76
2023/12/23 00:45:08;;;;;;;3.37;0.60;;;;;;;8.16;100.00;98918.59;332952;29;5623;-76
2023/12/23 00:45:21;;;;;;;4.03;0.70;;;;;;;8.18;100.00;98909.88;329784;29;18143;-76
2023/12/23 00:45:33;;;;;;;5.23;0.70;;;;;;;8.16;100.00;98924.63;334014;29;4627;-76
2023/12/23 00:45:44;;;;;;;3.92;0.63;;;;;;;8.16;100.00;98919.44;331064;29;18031;-76
2023/12/23 00:45:56;;;;;;;3.38;0.52;;;;;;;8.12;100.00;98923.03;334830;29;4869;-76
2023/12/23 00:46:09;;;;;;;1.95;0.40;;;;;;;8.14;100.00;98925.59;333775;29;4621;-76
2023/12/23 00:46:21;;;;;;;3.13;0.43;;;;;;;8.16;100.00;98923.78;332009;29;18092;-76
2023/12/23 00:46:34;;;;;;;2.72;0.40;;;;;;;8.17;100.00;98920.31;334883;29;4526;-76
2023/12/23 00:46:46;;;;;;;3.72;0.50;;;;;;;8.16;100.00;98923.78;332661;28;5113;-76
2023/12/23 00:46:58;;;;;;;3.85;0.50;;;;;;;8.09;100.00;98922.28;336111;28;5890;-76
2023/12/23 00:47:10;;;;;;;5.05;0.60;;;;;;;8.06;100.00;98918.06;333590;28;4647;-76
2023/12/23 00:47:22;;;;;;;3.40;0.40;;;;;;;8.10;100.00;98918.81;337333;28;4702;-76
2023/12/23 00:47:34;;;;;;;1.10;0.35;;;;;;;8.11;100.00;98923.09;337168;28;4710;-76
2023/12/23 00:47:49;;;;;;;2.60;0.57;;;;;;;8.09;100.00;98922.28;334078;28;18554;-76
2023/12/23 00:48:02;;;;;;;2.10;0.60;;;;;;;8.13;100.00;98934.22;328342;29;18244;-76
2023/12/23 00:48:14;;;;;;;1.08;0.50;;;;;;;8.16;100.00;98921.19;335074;28;6259;-76
2023/12/23 00:48:26;;;;;;;1.27;0.40;;;;;;;8.13;100.00;98947.19;333024;28;18546;-76
2023/12/23 00:48:38;;;;;;;1.58;0.50;;;;;;;8.18;100.00;98932.34;335573;28;4541;-76
2023/12/23 00:48:51;;;;;;;1.17;0.60;;;;;;;8.18;100.00;98937.53;333197;28;18307;-76
2023/12/23 00:49:03;;;;;;;1.10;0.60;;;;;;;8.14;100.00;98917.81;335648;28;5934;-76
2023/12/23 00:49:15;;;;;;;1.50;0.52;;;;;;;8.14;100.00;98936.78;335988;28;4574;-76
2023/12/23 00:49:27;;;;;;;1.40;0.50;;;;;;;8.14;100.00;98930.75;332211;29;18100;-76
2023/12/23 00:49:39;;;;;;;1.00;0.40;;;;;;;8.18;100.00;98922.00;331669;28;4679;-76
2023/12/23 00:49:51;;;;;;;1.65;0.70;;;;;;;8.14;100.00;98933.34;332357;28;16707;-76
2023/12/23 00:50:04;;;;;;;1.52;0.63;;;;;;;8.10;100.00;98949.88;335160;28;4567;-76
2023/12/23 00:50:16;;;;;;;1.17;0.60;;;;;;;8.10;100.00;98935.19;334688;28;13580;-76
2023/12/23 00:50:28;;;;;;;0.55;0.50;;;;;;;8.10;100.00;98932.59;337538;28;4667;-76
2023/12/23 00:50:40;;;;;;;0.68;0.60;;;;;;;8.20;100.00;98920.19;337296;28;4696;-76
2023/12/23 00:50:52;;;;;;;1.08;0.52;;;;;;;8.24;100.00;98937.31;332985;28;18367;-76
2023/12/23 00:51:04;;;;;;;1.70;0.60;;;;;;;8.19;100.00;98924.53;336990;28;4712;-76
2023/12/23 00:51:16;;;;;;;2.05;0.57;;;;;;;8.21;100.00;98927.06;333418;28;18380;-76
2023/12/23 00:51:28;;;;;;;1.55;0.50;;;;;;;8.26;100.00;98937.25;336648;28;4687;-76
2023/12/23 00:51:42;;;;;;;1.17;0.40;;;;;;;8.28;100.00;98933.72;335748;28;4605;-76
2023/12/23 00:51:54;;;;;;;4.10;0.50;;;;;;;8.30;100.00;98973.34;333667;28;17992;-76
2023/12/23 00:52:06;;;;;;;3.70;0.40;;;;;;;8.27;100.00;98936.34;332653;28;14155;-76
2023/12/23 00:52:18;;;;;;;2.33;0.30;;;;;;;8.32;100.00;98924.09;336520;28;4938;-76
2023/12/23 00:52:31;;;;;;;2.20;0.30;;;;;;;8.31;100.00;98933.63;337556;28;5105;-76
2023/12/23 00:52:43;;;;;;;3.70;0.40;;;;;;;8.30;100.00;98942.28;333116;29;17275;-76
2023/12/23 00:52:55;;;;;;;2.50;0.40;;;;;;;8.30;100.00;98937.09;336083;29;5409;-76
2023/12/23 00:53:07;;;;;;;1.83;0.50;;;;;;;8.25;100.00;98939.00;332456;28;17964;-76
2023/12/23 00:53:19;;;;;;;0.98;0.57;;;;;;;8.20;100.00;98936.56;336298;28;5428;-76
2023/12/23 00:53:31;;;;;;;0.93;0.55;;;;;;;8.22;100.00;98949.47;334508;28;16687;-76
2023/12/23 00:53:43;;;;;;;1.42;0.47;;;;;;;8.21;100.00;98960.72;332853;28;18185;-76
2023/12/23 00:53:59;;;;;;;3.20;0.60;;;;;;;8.21;100.00;98937.44;332986;29;17668;-76
2023/12/23 00:54:11;;;;;;;2.20;0.50;;;;;;;8.17;100.00;98972.09;335831;29;4670;-76
2023/12/23 00:54:23;;;;;;;1.50;0.55;;;;;;;8.19;100.00;98947.84;329664;28;18039;-76
2023/12/23 00:54:35;;;;;;;0.95;0.55;;;;;;;8.18;100.00;98947.88;335941;28;7063;-76
2023/12/23 00:54:47;;;;;;;2.85;0.50;;;;;;;8.14;100.00;98969.59;333695;28;13434;-76
2023/12/23 00:54:59;;;;;;;3.72;0.70;;;;;;;8.20;100.00;98966.78;335905;28;6892;-76
2023/12/23 00:55:11;;;;;;;3.80;0.80;;;;;;;8.23;100.00;98938.22;332339;28;4739;-76
2023/12/23 00:55:23;;;;;;;2.65;0.75;;;;;;;8.23;100.00;98948.56;335351;28;18100;-76
2023/12/23 00:55:35;;;;;;;2.70;0.60;;;;;;;8.19;100.00;98947.84;338391;28;4668;-76
2023/12/23 00:55:47;;;;;;;1.40;0.57;;;;;;;8.19;100.00;98936.63;334124;28;18441;-76
2023/12/23 00:55:59;;;;;;;1.10;0.50;;;;;;;8.17;100.00;98946.19;335202;28;5456;-76
2023/12/23 00:56:18;;;;;;;1.20;0.43;;;;;;;8.13;100.00;98947.19;333858;29;11753;-76
2023/12/23 00:56:30;;;;;;;0.60;0.32;;;;;;;8.13;100.00;98944.59;329495;29;17586;-76
2023/12/23 00:56:42;;;;;;;0.40;0.30;;;;;;;8.14;100.00;98941.13;332130;29;5343;-76
2023/12/23 00:56:54;;;;;;;0.47;0.38;;;;;;;8.13;100.00;98950.63;331097;29;17428;-76
2023/12/23 00:57:06;;;;;;;0.82;0.50;;;;;;;8.14;100.00;98952.31;333615;29;5149;-76
2023/12/23 00:57:18;;;;;;;1.23;0.88;;;;;;;8.10;100.00;98934.34;332236;29;12582;-76
2023/12/23 00:57:30;;;;;;;2.10;0.88;;;;;;;8.05;100.00;98942.28;334246;29;4777;-76
2023/12/23 00:57:42;;;;;;;1.92;0.65;;;;;;;8.08;100.00;98939.56;334318;29;4736;-76
2023/12/23 00:57:54;;;;;;;1.00;0.50;;;;;;;8.10;100.00;98949.88;331075;29;17802;-77
2023/12/23 00:58:06;;;;;;;1.00;0.32;;;;;;;8.08;100.00;98946.50;330304;28;5312;-77
2023/12/23 00:58:18;;;;;;;1.13;0.32;;;;;;;8.05;100.00;98963.00;333379;28;13890;-77
2023/12/23 00:58:30;;;;;;;1.10;0.30;;;;;;;8.08;100.00;98969.78;337183;28;4572;-77
2023/12/23 00:58:42;;;;;;;1.13;0.30;;;;;;;8.06;100.00;98961.25;336595;28;5532;-77